sensor_id;sensor_type;location;lat;lon;timestamp;temperature;humidity
5870;DHT22;2961;47.702;9.410;2023-07-09T00:00:14;17.60;99.90
5870;DHT22;2961;47.702;9.410;2023-07-09T00:02:41;17.50;99.90
5870;DHT22;2961;47.702;9.410;2023-07-09T00:05:11;17.60;99.90
5870;DHT22;2961;47.702;9.410;2023-07-09T00:07:39;17.60;99.90
5870;DHT22;2961;47.702;9.410;2023-07-09T00:10:14;17.50;99.90
5870;DHT22;2961;47.702;9.410;2023-07-09T00:12:42;17.50;99.90
5870;DHT22;2961;47.702;9.410;2023-07-09T00:15:11;17.40;99.90
5870;DHT22;2961;47.702;9.410;2023-07-09T00:17:38;17.30;99.90
5870;DHT22;2961;47.702;9.410;2023-07-09T00:20:09;17.30;99.90
5870;DHT22;2961;47.702;9.410;2023-07-09T00:22:39;17.30;99.90
5870;DHT22;2961;47.702;9.410;2023-07-09T00:25:09;17.30;99.90
5870;DHT22;2961;47.702;9.410;2023-07-09T00:27:39;17.30;99.90
5870;DHT22;2961;47.702;9.410;2023-07-09T00:30:14;17.20;99.90
5870;DHT22;2961;47.702;9.410;2023-07-09T00:32:42;17.20;99.90
5870;DHT22;2961;47.702;9.410;2023-07-09T00:35:10;17.10;99.90
5870;DHT22;2961;47.702;9.410;2023-07-09T00:37:41;17.20;99.90
5870;DHT22;2961;47.702;9.410;2023-07-09T00:40:13;17.20;99.90
5870;DHT22;2961;47.702;9.410;2023-07-09T00:42:43;17.20;99.90
5870;DHT22;2961;47.702;9.410;2023-07-09T00:45:18;17.20;99.90
5870;DHT22;2961;47.702;9.410;2023-07-09T00:47:49;17.20;99.90
5870;DHT22;2961;47.702;9.410;2023-07-09T00:50:25;17.20;99.90
5870;DHT22;2961;47.702;9.410;2023-07-09T00:52:55;17.20;99.90
5870;DHT22;2961;47.702;9.410;2023-07-09T00:55:31;17.10;99.90
5870;DHT22;2961;47.702;9.410;2023-07-09T00:58:05;17.10;99.90
5870;DHT22;2961;47.702;9.410;2023-07-09T01:00:37;17.00;99.90
5870;DHT22;2961;47.702;9.410;2023-07-09T01:03:17;17.00;99.90
5870;DHT22;2961;47.702;9.410;2023-07-09T01:05:46;17.00;99.90
5870;DHT22;2961;47.702;9.410;2023-07-09T01:08:17;16.90;99.90
5870;DHT22;2961;47.702;9.410;2023-07-09T01:10:44;16.90;99.90
5870;DHT22;2961;47.702;9.410;2023-07-09T01:13:11;16.80;99.90
5870;DHT22;2961;47.702;9.410;2023-07-09T01:15:39;16.90;99.90
5870;DHT22;2961;47.702;9.410;2023-07-09T01:18:07;16.90;99.90
5870;DHT22;2961;47.702;9.410;2023-07-09T01:20:38;16.80;99.90
5870;DHT22;2961;47.702;9.410;2023-07-09T01:23:07;16.80;99.90
5870;DHT22;2961;47.702;9.410;2023-07-09T01:25:36;16.80;99.90
5870;DHT22;2961;47.702;9.410;2023-07-09T01:28:04;16.80;99.90
5870;DHT22;2961;47.702;9.410;2023-07-09T01:30:35;16.80;99.90
5870;DHT22;2961;47.702;9.410;2023-07-09T01:33:03;16.70;99.90
5870;DHT22;2961;47.702;9.410;2023-07-09T01:35:33;16.70;99.90
5870;DHT22;2961;47.702;9.410;2023-07-09T01:38:01;16.60;99.90
5870;DHT22;2961;47.702;9.410;2023-07-09T01:40:30;16.60;99.90
5870;DHT22;2961;47.702;9.410;2023-07-09T01:42:58;16.60;99.90
5870;DHT22;2961;47.702;9.410;2023-07-09T01:45:25;16.70;99.90
5870;DHT22;2961;47.702;9.410;2023-07-09T01:47:52;16.70;99.90
5870;DHT22;2961;47.702;9.410;2023-07-09T01:50:21;16.70;99.90
5870;DHT22;2961;47.702;9.410;2023-07-09T01:52:49;16.70;99.90
5870;DHT22;2961;47.702;9.410;2023-07-09T01:55:17;16.70;99.90
5870;DHT22;2961;47.702;9.410;2023-07-09T01:57:46;16.60;99.90
5870;DHT22;2961;47.702;9.410;2023-07-09T02:00:15;16.40;99.90
5870;DHT22;2961;47.702;9.410;2023-07-09T02:02:44;16.30;99.90
5870;DHT22;2961;47.702;9.410;2023-07-09T02:05:12;16.30;99.90
5870;DHT22;2961;47.702;9.410;2023-07-09T02:07:39;16.30;99.90
5870;DHT22;2961;47.702;9.410;2023-07-09T02:10:07;16.20;99.90
5870;DHT22;2961;47.702;9.410;2023-07-09T02:12:34;16.20;99.90
5870;DHT22;2961;47.702;9.410;2023-07-09T02:15:02;16.20;99.90
5870;DHT22;2961;47.702;9.410;2023-07-09T02:17:29;16.20;99.90
5870;DHT22;2961;47.702;9.410;2023-07-09T02:19:56;16.20;99.90
5870;DHT22;2961;47.702;9.410;2023-07-09T02:22:23;16.20;99.90
5870;DHT22;2961;47.702;9.410;2023-07-09T02:24:50;16.30;99.90
5870;DHT22;2961;47.702;9.410;2023-07-09T02:27:19;16.40;99.90
5870;DHT22;2961;47.702;9.410;2023-07-09T02:29:46;16.30;99.90
5870;DHT22;2961;47.702;9.410;2023-07-09T02:32:18;16.30;99.90
5870;DHT22;2961;47.702;9.410;2023-07-09T02:34:45;16.20;99.90
5870;DHT22;2961;47.702;9.410;2023-07-09T02:37:15;16.10;99.90
5870;DHT22;2961;47.702;9.410;2023-07-09T02:39:42;16.10;99.90
5870;DHT22;2961;47.702;9.410;2023-07-09T02:42:09;16.10;99.90
5870;DHT22;2961;47.702;9.410;2023-07-09T02:44:37;16.10;99.90
5870;DHT22;2961;47.702;9.410;2023-07-09T02:47:04;16.10;99.90
5870;DHT22;2961;47.702;9.410;2023-07-09T02:49:32;16.00;99.90
5870;DHT22;2961;47.702;9.410;2023-07-09T02:51:59;15.90;99.90
5870;DHT22;2961;47.702;9.410;2023-07-09T02:54:26;15.90;99.90
5870;DHT22;2961;47.702;9.410;2023-07-09T02:56:53;15.90;99.90
5870;DHT22;2961;47.702;9.410;2023-07-09T02:59:20;15.90;99.90
5870;DHT22;2961;47.702;9.410;2023-07-09T03:01:47;15.90;99.90
5870;DHT22;2961;47.702;9.410;2023-07-09T03:04:14;15.90;99.90
5870;DHT22;2961;47.702;9.410;2023-07-09T03:06:42;15.80;99.90
5870;DHT22;2961;47.702;9.410;2023-07-09T03:09:10;15.80;99.90
5870;DHT22;2961;47.702;9.410;2023-07-09T03:11:36;15.70;99.90
5870;DHT22;2961;47.702;9.410;2023-07-09T03:14:03;15.80;99.90
5870;DHT22;2961;47.702;9.410;2023-07-09T03:16:32;15.70;99.90
5870;DHT22;2961;47.702;9.410;2023-07-09T03:18:59;15.70;99.90
5870;DHT22;2961;47.702;9.410;2023-07-09T03:21:27;15.70;99.90
5870;DHT22;2961;47.702;9.410;2023-07-09T03:23:56;15.70;99.90
5870;DHT22;2961;47.702;9.410;2023-07-09T03:26:23;15.70;99.90
5870;DHT22;2961;47.702;9.410;2023-07-09T03:28:50;15.70;99.90
5870;DHT22;2961;47.702;9.410;2023-07-09T03:31:17;15.70;99.90
5870;DHT22;2961;47.702;9.410;2023-07-09T03:33:46;15.70;99.90
5870;DHT22;2961;47.702;9.410;2023-07-09T03:36:13;15.70;99.90
5870;DHT22;2961;47.702;9.410;2023-07-09T03:38:40;15.60;99.90
5870;DHT22;2961;47.702;9.410;2023-07-09T03:41:08;15.50;99.90
5870;DHT22;2961;47.702;9.410;2023-07-09T03:43:35;15.50;99.90
5870;DHT22;2961;47.702;9.410;2023-07-09T03:46:02;15.50;99.90
5870;DHT22;2961;47.702;9.410;2023-07-09T03:48:29;15.50;99.90
5870;DHT22;2961;47.702;9.410;2023-07-09T03:50:55;15.50;99.90
5870;DHT22;2961;47.702;9.410;2023-07-09T03:53:22;15.50;99.90
5870;DHT22;2961;47.702;9.410;2023-07-09T03:55:52;15.50;99.90
5870;DHT22;2961;47.702;9.410;2023-07-09T03:58:21;15.70;99.90
5870;DHT22;2961;47.702;9.410;2023-07-09T04:00:48;15.80;99.90
5870;DHT22;2961;47.702;9.410;2023-07-09T04:03:15;15.80;99.90
5870;DHT22;2961;47.702;9.410;2023-07-09T04:05:42;15.90;99.90
5870;DHT22;2961;47.702;9.410;2023-07-09T04:08:09;16.00;99.90
5870;DHT22;2961;47.702;9.410;2023-07-09T04:10:36;16.00;99.90
5870;DHT22;2961;47.702;9.410;2023-07-09T04:13:02;16.00;99.90
5870;DHT22;2961;47.702;9.410;2023-07-09T04:15:30;16.00;99.90
5870;DHT22;2961;47.702;9.410;2023-07-09T04:17:57;16.00;99.90
5870;DHT22;2961;47.702;9.410;2023-07-09T04:20:24;16.10;99.90
5870;DHT22;2961;47.702;9.410;2023-07-09T04:22:51;16.10;99.90
5870;DHT22;2961;47.702;9.410;2023-07-09T04:25:17;16.30;99.90
5870;DHT22;2961;47.702;9.410;2023-07-09T04:27:44;16.80;99.90
5870;DHT22;2961;47.702;9.410;2023-07-09T04:30:13;17.50;99.90
5870;DHT22;2961;47.702;9.410;2023-07-09T04:32:42;18.10;99.90
5870;DHT22;2961;47.702;9.410;2023-07-09T04:35:10;18.40;99.90
5870;DHT22;2961;47.702;9.410;2023-07-09T04:37:37;18.40;99.90
5870;DHT22;2961;47.702;9.410;2023-07-09T04:40:05;18.20;99.90
5870;DHT22;2961;47.702;9.410;2023-07-09T04:42:35;18.20;99.90
5870;DHT22;2961;47.702;9.410;2023-07-09T04:45:03;18.60;99.90
5870;DHT22;2961;47.702;9.410;2023-07-09T04:47:30;19.50;99.90
5870;DHT22;2961;47.702;9.410;2023-07-09T04:49:58;20.50;99.90
5870;DHT22;2961;47.702;9.410;2023-07-09T04:52:25;21.40;99.90
5870;DHT22;2961;47.702;9.410;2023-07-09T04:54:51;22.20;99.90
5870;DHT22;2961;47.702;9.410;2023-07-09T04:57:18;23.00;99.90
5870;DHT22;2961;47.702;9.410;2023-07-09T04:59:45;23.70;99.90
5870;DHT22;2961;47.702;9.410;2023-07-09T05:02:11;24.30;99.90
5870;DHT22;2961;47.702;9.410;2023-07-09T05:04:38;25.10;99.90
5870;DHT22;2961;47.702;9.410;2023-07-09T05:07:07;25.70;99.90
5870;DHT22;2961;47.702;9.410;2023-07-09T05:09:33;26.30;99.90
5870;DHT22;2961;47.702;9.410;2023-07-09T05:12:00;26.60;99.90
5870;DHT22;2961;47.702;9.410;2023-07-09T05:14:28;27.30;99.50
5870;DHT22;2961;47.702;9.410;2023-07-09T05:16:55;28.10;97.30
5870;DHT22;2961;47.702;9.410;2023-07-09T05:19:21;28.60;96.40
5870;DHT22;2961;47.702;9.410;2023-07-09T05:21:48;29.10;93.60
5870;DHT22;2961;47.702;9.410;2023-07-09T05:24:16;29.30;92.90
5870;DHT22;2961;47.702;9.410;2023-07-09T05:26:43;29.70;92.00
5870;DHT22;2961;47.702;9.410;2023-07-09T05:29:10;30.00;91.20
5870;DHT22;2961;47.702;9.410;2023-07-09T05:31:37;30.40;90.70
5870;DHT22;2961;47.702;9.410;2023-07-09T05:34:03;30.50;88.60
5870;DHT22;2961;47.702;9.410;2023-07-09T05:36:30;30.80;87.10
5870;DHT22;2961;47.702;9.410;2023-07-09T05:38:57;31.20;85.90
5870;DHT22;2961;47.702;9.410;2023-07-09T05:41:25;32.00;81.50
5870;DHT22;2961;47.702;9.410;2023-07-09T05:43:52;32.60;76.90
5870;DHT22;2961;47.702;9.410;2023-07-09T05:46:21;32.60;72.50
5870;DHT22;2961;47.702;9.410;2023-07-09T05:48:48;32.30;72.10
5870;DHT22;2961;47.702;9.410;2023-07-09T05:51:15;32.20;71.60
5870;DHT22;2961;47.702;9.410;2023-07-09T05:53:42;32.20;70.50
5870;DHT22;2961;47.702;9.410;2023-07-09T05:56:08;31.90;71.50
5870;DHT22;2961;47.702;9.410;2023-07-09T05:58:37;31.90;71.30
5870;DHT22;2961;47.702;9.410;2023-07-09T06:01:04;32.00;69.80
5870;DHT22;2961;47.702;9.410;2023-07-09T06:03:31;31.80;71.20
5870;DHT22;2961;47.702;9.410;2023-07-09T06:05:59;32.00;70.40
5870;DHT22;2961;47.702;9.410;2023-07-09T06:08:26;32.60;68.10
5870;DHT22;2961;47.702;9.410;2023-07-09T06:10:57;32.50;68.90
5870;DHT22;2961;47.702;9.410;2023-07-09T06:13:25;32.60;69.40
5870;DHT22;2961;47.702;9.410;2023-07-09T06:15:54;32.50;67.30
5870;DHT22;2961;47.702;9.410;2023-07-09T06:18:22;33.20;67.70
5870;DHT22;2961;47.702;9.410;2023-07-09T06:20:49;33.50;65.90
5870;DHT22;2961;47.702;9.410;2023-07-09T06:23:17;34.00;65.20
5870;DHT22;2961;47.702;9.410;2023-07-09T06:25:44;33.50;64.50
5870;DHT22;2961;47.702;9.410;2023-07-09T06:28:13;33.30;65.20
5870;DHT22;2961;47.702;9.410;2023-07-09T06:30:41;32.80;66.00
5870;DHT22;2961;47.702;9.410;2023-07-09T06:33:10;32.70;67.20
5870;DHT22;2961;47.702;9.410;2023-07-09T06:35:37;32.70;66.90
5870;DHT22;2961;47.702;9.410;2023-07-09T06:38:05;33.50;65.20
5870;DHT22;2961;47.702;9.410;2023-07-09T06:40:31;33.80;64.40
5870;DHT22;2961;47.702;9.410;2023-07-09T06:43:00;33.50;65.70
5870;DHT22;2961;47.702;9.410;2023-07-09T06:45:27;33.50;65.30
5870;DHT22;2961;47.702;9.410;2023-07-09T06:47:54;34.30;64.10
5870;DHT22;2961;47.702;9.410;2023-07-09T06:50:22;34.60;62.80
5870;DHT22;2961;47.702;9.410;2023-07-09T06:52:49;34.30;64.20
5870;DHT22;2961;47.702;9.410;2023-07-09T06:55:16;33.70;64.40
5870;DHT22;2961;47.702;9.410;2023-07-09T06:57:42;34.60;63.10
5870;DHT22;2961;47.702;9.410;2023-07-09T07:00:10;35.30;61.00
5870;DHT22;2961;47.702;9.410;2023-07-09T07:02:37;35.50;61.20
5870;DHT22;2961;47.702;9.410;2023-07-09T07:05:04;35.80;59.20
5870;DHT22;2961;47.702;9.410;2023-07-09T07:07:32;35.90;58.60
5870;DHT22;2961;47.702;9.410;2023-07-09T07:09:59;36.40;57.20
5870;DHT22;2961;47.702;9.410;2023-07-09T07:12:28;35.90;57.40
5870;DHT22;2961;47.702;9.410;2023-07-09T07:14:55;36.60;57.60
5870;DHT22;2961;47.702;9.410;2023-07-09T07:17:22;37.30;55.70
5870;DHT22;2961;47.702;9.410;2023-07-09T07:19:50;37.60;54.70
5870;DHT22;2961;47.702;9.410;2023-07-09T07:22:17;38.00;54.80
5870;DHT22;2961;47.702;9.410;2023-07-09T07:24:45;38.20;54.00
5870;DHT22;2961;47.702;9.410;2023-07-09T07:27:12;37.90;54.30
5870;DHT22;2961;47.702;9.410;2023-07-09T07:29:39;38.30;52.40
5870;DHT22;2961;47.702;9.410;2023-07-09T07:32:07;37.40;53.00
5870;DHT22;2961;47.702;9.410;2023-07-09T07:34:34;36.80;53.60
5870;DHT22;2961;47.702;9.410;2023-07-09T07:37:00;36.80;55.20
5870;DHT22;2961;47.702;9.410;2023-07-09T07:39:28;36.30;55.30
5870;DHT22;2961;47.702;9.410;2023-07-09T07:41:57;36.60;55.00
5870;DHT22;2961;47.702;9.410;2023-07-09T07:44:24;37.00;54.80
5870;DHT22;2961;47.702;9.410;2023-07-09T07:46:50;37.20;53.30
5870;DHT22;2961;47.702;9.410;2023-07-09T07:49:17;36.60;54.30
5870;DHT22;2961;47.702;9.410;2023-07-09T07:51:44;36.90;53.80
5870;DHT22;2961;47.702;9.410;2023-07-09T07:54:11;37.60;53.50
5870;DHT22;2961;47.702;9.410;2023-07-09T07:56:38;37.50;52.30
5870;DHT22;2961;47.702;9.410;2023-07-09T07:59:06;37.80;53.70
5870;DHT22;2961;47.702;9.410;2023-07-09T08:01:32;38.20;52.60
5870;DHT22;2961;47.702;9.410;2023-07-09T08:04:01;38.50;50.20
5870;DHT22;2961;47.702;9.410;2023-07-09T08:06:28;39.00;50.30
5870;DHT22;2961;47.702;9.410;2023-07-09T08:08:56;39.60;50.10
5870;DHT22;2961;47.702;9.410;2023-07-09T08:11:24;39.50;48.50
5870;DHT22;2961;47.702;9.410;2023-07-09T08:13:53;39.80;48.60
5870;DHT22;2961;47.702;9.410;2023-07-09T08:16:21;39.30;48.40
5870;DHT22;2961;47.702;9.410;2023-07-09T08:18:48;38.70;48.90
5870;DHT22;2961;47.702;9.410;2023-07-09T08:21:17;38.80;48.40
5870;DHT22;2961;47.702;9.410;2023-07-09T08:23:45;39.00;48.70
5870;DHT22;2961;47.702;9.410;2023-07-09T08:26:12;39.50;47.90
5870;DHT22;2961;47.702;9.410;2023-07-09T08:28:38;39.90;47.90
5870;DHT22;2961;47.702;9.410;2023-07-09T08:31:05;40.10;47.70
5870;DHT22;2961;47.702;9.410;2023-07-09T08:33:33;40.40;46.70
5870;DHT22;2961;47.702;9.410;2023-07-09T08:36:00;39.70;47.50
5870;DHT22;2961;47.702;9.410;2023-07-09T08:38:27;38.40;50.30
5870;DHT22;2961;47.702;9.410;2023-07-09T08:40:59;38.20;48.70
5870;DHT22;2961;47.702;9.410;2023-07-09T08:43:34;38.60;48.20
5870;DHT22;2961;47.702;9.410;2023-07-09T08:46:10;38.50;48.70
5870;DHT22;2961;47.702;9.410;2023-07-09T08:48:45;38.90;47.30
5870;DHT22;2961;47.702;9.410;2023-07-09T08:51:16;39.00;47.40
5870;DHT22;2961;47.702;9.410;2023-07-09T08:53:49;38.20;50.30
5870;DHT22;2961;47.702;9.410;2023-07-09T08:56:17;37.80;50.00
5870;DHT22;2961;47.702;9.410;2023-07-09T08:58:46;37.90;49.50
5870;DHT22;2961;47.702;9.410;2023-07-09T09:01:18;37.80;50.20
5870;DHT22;2961;47.702;9.410;2023-07-09T09:03:48;38.00;50.40
5870;DHT22;2961;47.702;9.410;2023-07-09T09:06:17;37.90;50.90
5870;DHT22;2961;47.702;9.410;2023-07-09T09:08:55;37.90;50.10
5870;DHT22;2961;47.702;9.410;2023-07-09T09:11:37;38.50;48.50
5870;DHT22;2961;47.702;9.410;2023-07-09T09:14:18;39.00;48.30
5870;DHT22;2961;47.702;9.410;2023-07-09T09:16:46;39.20;50.30
5870;DHT22;2961;47.702;9.410;2023-07-09T09:19:20;38.80;49.30
5870;DHT22;2961;47.702;9.410;2023-07-09T09:21:50;39.00;49.20
5870;DHT22;2961;47.702;9.410;2023-07-09T09:24:26;38.90;48.60
5870;DHT22;2961;47.702;9.410;2023-07-09T09:26:58;39.30;48.80
5870;DHT22;2961;47.702;9.410;2023-07-09T09:29:26;39.70;47.30
5870;DHT22;2961;47.702;9.410;2023-07-09T09:31:55;39.40;47.70
5870;DHT22;2961;47.702;9.410;2023-07-09T09:34:26;39.30;46.60
5870;DHT22;2961;47.702;9.410;2023-07-09T09:36:54;39.40;47.20
5870;DHT22;2961;47.702;9.410;2023-07-09T09:39:22;39.20;47.10
5870;DHT22;2961;47.702;9.410;2023-07-09T09:41:52;39.10;45.90
5870;DHT22;2961;47.702;9.410;2023-07-09T09:44:23;39.00;46.70
5870;DHT22;2961;47.702;9.410;2023-07-09T09:46:50;39.10;45.80
5870;DHT22;2961;47.702;9.410;2023-07-09T09:49:17;38.70;46.60
5870;DHT22;2961;47.702;9.410;2023-07-09T09:51:47;38.90;46.50
5870;DHT22;2961;47.702;9.410;2023-07-09T09:54:18;38.80;44.20
5870;DHT22;2961;47.702;9.410;2023-07-09T09:56:48;39.20;44.60
5870;DHT22;2961;47.702;9.410;2023-07-09T09:59:18;38.90;45.40
5870;DHT22;2961;47.702;9.410;2023-07-09T10:01:45;38.70;45.40
5870;DHT22;2961;47.702;9.410;2023-07-09T10:04:17;38.50;46.40
5870;DHT22;2961;47.702;9.410;2023-07-09T10:06:48;38.00;46.80
5870;DHT22;2961;47.702;9.410;2023-07-09T10:09:24;37.50;51.20
5870;DHT22;2961;47.702;9.410;2023-07-09T10:11:57;37.30;50.60
5870;DHT22;2961;47.702;9.410;2023-07-09T10:14:36;37.10;51.20
5870;DHT22;2961;47.702;9.410;2023-07-09T10:17:14;36.90;51.10
5870;DHT22;2961;47.702;9.410;2023-07-09T10:19:48;36.60;52.10
5870;DHT22;2961;47.702;9.410;2023-07-09T10:22:30;36.80;52.40
5870;DHT22;2961;47.702;9.410;2023-07-09T10:25:13;36.60;52.30
5870;DHT22;2961;47.702;9.410;2023-07-09T10:27:53;36.50;52.60
5870;DHT22;2961;47.702;9.410;2023-07-09T10:30:35;36.10;52.40
5870;DHT22;2961;47.702;9.410;2023-07-09T10:33:09;35.80;52.30
5870;DHT22;2961;47.702;9.410;2023-07-09T10:35:40;35.50;54.30
5870;DHT22;2961;47.702;9.410;2023-07-09T10:38:33;35.30;52.90
5870;DHT22;2961;47.702;9.410;2023-07-09T10:41:00;35.40;53.30
5870;DHT22;2961;47.702;9.410;2023-07-09T10:43:35;34.90;55.20
5870;DHT22;2961;47.702;9.410;2023-07-09T10:46:05;34.50;57.00
5870;DHT22;2961;47.702;9.410;2023-07-09T10:48:39;34.20;55.70
5870;DHT22;2961;47.702;9.410;2023-07-09T10:51:16;33.80;57.00
5870;DHT22;2961;47.702;9.410;2023-07-09T10:53:48;33.60;59.20
5870;DHT22;2961;47.702;9.410;2023-07-09T10:56:19;33.50;59.00
5870;DHT22;2961;47.702;9.410;2023-07-09T10:58:51;33.50;59.10
5870;DHT22;2961;47.702;9.410;2023-07-09T11:01:27;33.40;59.20
5870;DHT22;2961;47.702;9.410;2023-07-09T11:03:58;33.20;59.00
5870;DHT22;2961;47.702;9.410;2023-07-09T11:06:31;33.20;58.80
5870;DHT22;2961;47.702;9.410;2023-07-09T11:09:01;33.10;57.60
5870;DHT22;2961;47.702;9.410;2023-07-09T11:11:32;33.10;56.80
5870;DHT22;2961;47.702;9.410;2023-07-09T11:14:03;33.00;57.50
5870;DHT22;2961;47.702;9.410;2023-07-09T11:16:35;33.00;57.20
5870;DHT22;2961;47.702;9.410;2023-07-09T11:19:05;33.20;56.80
5870;DHT22;2961;47.702;9.410;2023-07-09T11:21:33;33.30;56.20
5870;DHT22;2961;47.702;9.410;2023-07-09T11:24:01;33.30;57.50
5870;DHT22;2961;47.702;9.410;2023-07-09T11:26:29;33.30;57.00
5870;DHT22;2961;47.702;9.410;2023-07-09T11:29:14;33.20;57.10
5870;DHT22;2961;47.702;9.410;2023-07-09T11:31:43;33.20;55.50
5870;DHT22;2961;47.702;9.410;2023-07-09T11:34:16;33.30;54.80
5870;DHT22;2961;47.702;9.410;2023-07-09T11:36:49;33.30;53.40
5870;DHT22;2961;47.702;9.410;2023-07-09T11:39:22;33.30;53.60
5870;DHT22;2961;47.702;9.410;2023-07-09T11:41:49;33.30;51.90
5870;DHT22;2961;47.702;9.410;2023-07-09T11:44:18;33.40;53.20
5870;DHT22;2961;47.702;9.410;2023-07-09T11:46:52;33.40;53.90
5870;DHT22;2961;47.702;9.410;2023-07-09T11:49:23;33.50;53.40
5870;DHT22;2961;47.702;9.410;2023-07-09T11:51:54;33.60;53.70
5870;DHT22;2961;47.702;9.410;2023-07-09T11:54:23;33.70;52.70
5870;DHT22;2961;47.702;9.410;2023-07-09T11:56:57;33.80;53.70
5870;DHT22;2961;47.702;9.410;2023-07-09T11:59:24;33.80;54.70
5870;DHT22;2961;47.702;9.410;2023-07-09T12:01:52;33.80;55.20
5870;DHT22;2961;47.702;9.410;2023-07-09T12:04:22;33.80;52.00
5870;DHT22;2961;47.702;9.410;2023-07-09T12:06:53;33.90;53.10
5870;DHT22;2961;47.702;9.410;2023-07-09T12:09:29;34.00;53.80
5870;DHT22;2961;47.702;9.410;2023-07-09T12:11:57;34.10;52.20
5870;DHT22;2961;47.702;9.410;2023-07-09T12:14:23;34.00;53.10
5870;DHT22;2961;47.702;9.410;2023-07-09T12:16:53;34.00;53.30
5870;DHT22;2961;47.702;9.410;2023-07-09T12:19:21;34.00;53.40
5870;DHT22;2961;47.702;9.410;2023-07-09T12:21:50;34.00;52.60
5870;DHT22;2961;47.702;9.410;2023-07-09T12:24:21;33.80;52.70
5870;DHT22;2961;47.702;9.410;2023-07-09T12:26:51;33.70;53.80
5870;DHT22;2961;47.702;9.410;2023-07-09T12:29:18;33.60;53.10
5870;DHT22;2961;47.702;9.410;2023-07-09T12:31:45;33.80;53.00
5870;DHT22;2961;47.702;9.410;2023-07-09T12:34:13;33.80;52.70
5870;DHT22;2961;47.702;9.410;2023-07-09T12:36:44;33.90;53.00
5870;DHT22;2961;47.702;9.410;2023-07-09T12:39:12;34.10;52.30
5870;DHT22;2961;47.702;9.410;2023-07-09T12:41:42;34.30;51.30
5870;DHT22;2961;47.702;9.410;2023-07-09T12:44:17;34.40;50.70
5870;DHT22;2961;47.702;9.410;2023-07-09T12:46:45;34.50;50.60
5870;DHT22;2961;47.702;9.410;2023-07-09T12:49:22;34.60;51.50
5870;DHT22;2961;47.702;9.410;2023-07-09T12:51:48;34.70;51.50
5870;DHT22;2961;47.702;9.410;2023-07-09T12:54:17;34.80;52.20
5870;DHT22;2961;47.702;9.410;2023-07-09T12:56:44;35.00;51.40
5870;DHT22;2961;47.702;9.410;2023-07-09T12:59:21;35.10;50.00
5870;DHT22;2961;47.702;9.410;2023-07-09T13:01:50;35.00;49.90
5870;DHT22;2961;47.702;9.410;2023-07-09T13:04:17;34.90;51.10
5870;DHT22;2961;47.702;9.410;2023-07-09T13:06:45;34.60;51.00
5870;DHT22;2961;47.702;9.410;2023-07-09T13:09:19;34.60;50.40
5870;DHT22;2961;47.702;9.410;2023-07-09T13:11:48;34.70;50.40
5870;DHT22;2961;47.702;9.410;2023-07-09T13:14:20;34.70;49.10
5870;DHT22;2961;47.702;9.410;2023-07-09T13:16:47;34.60;48.90
5870;DHT22;2961;47.702;9.410;2023-07-09T13:19:14;34.50;49.90
5870;DHT22;2961;47.702;9.410;2023-07-09T13:21:41;34.50;50.80
5870;DHT22;2961;47.702;9.410;2023-07-09T13:24:14;34.50;50.20
5870;DHT22;2961;47.702;9.410;2023-07-09T13:26:42;34.50;49.70
5870;DHT22;2961;47.702;9.410;2023-07-09T13:29:13;34.60;49.40
5870;DHT22;2961;47.702;9.410;2023-07-09T13:31:44;34.70;49.80
5870;DHT22;2961;47.702;9.410;2023-07-09T13:34:19;34.80;48.40
5870;DHT22;2961;47.702;9.410;2023-07-09T13:36:48;34.80;47.80
5870;DHT22;2961;47.702;9.410;2023-07-09T13:39:15;34.90;48.80
5870;DHT22;2961;47.702;9.410;2023-07-09T13:41:43;34.80;48.00
5870;DHT22;2961;47.702;9.410;2023-07-09T13:44:14;34.90;45.50
5870;DHT22;2961;47.702;9.410;2023-07-09T13:46:43;34.90;46.20
5870;DHT22;2961;47.702;9.410;2023-07-09T13:49:12;34.70;47.30
5870;DHT22;2961;47.702;9.410;2023-07-09T13:51:40;34.70;46.00
5870;DHT22;2961;47.702;9.410;2023-07-09T13:54:15;34.80;46.10
5870;DHT22;2961;47.702;9.410;2023-07-09T13:56:43;34.80;44.70
5870;DHT22;2961;47.702;9.410;2023-07-09T13:59:18;34.80;45.10
5870;DHT22;2961;47.702;9.410;2023-07-09T14:01:47;34.70;45.20
5870;DHT22;2961;47.702;9.410;2023-07-09T14:04:16;34.80;45.00
5870;DHT22;2961;47.702;9.410;2023-07-09T14:06:43;34.70;45.80
5870;DHT22;2961;47.702;9.410;2023-07-09T14:09:11;34.70;44.10
5870;DHT22;2961;47.702;9.410;2023-07-09T14:11:41;34.80;43.80
5870;DHT22;2961;47.702;9.410;2023-07-09T14:14:20;34.70;43.00
5870;DHT22;2961;47.702;9.410;2023-07-09T14:16:49;34.60;45.40
5870;DHT22;2961;47.702;9.410;2023-07-09T14:19:17;34.60;44.60
5870;DHT22;2961;47.702;9.410;2023-07-09T14:21:45;34.70;44.40
5870;DHT22;2961;47.702;9.410;2023-07-09T14:24:18;34.70;45.20
5870;DHT22;2961;47.702;9.410;2023-07-09T14:26:46;34.60;44.50
5870;DHT22;2961;47.702;9.410;2023-07-09T14:29:13;34.70;44.60
5870;DHT22;2961;47.702;9.410;2023-07-09T14:31:40;34.70;42.10
5870;DHT22;2961;47.702;9.410;2023-07-09T14:34:21;34.70;43.00
5870;DHT22;2961;47.702;9.410;2023-07-09T14:36:48;34.70;42.10
5870;DHT22;2961;47.702;9.410;2023-07-09T14:39:15;34.70;43.50
5870;DHT22;2961;47.702;9.410;2023-07-09T14:41:43;34.70;42.40
5870;DHT22;2961;47.702;9.410;2023-07-09T14:44:20;34.70;43.00
5870;DHT22;2961;47.702;9.410;2023-07-09T14:46:48;34.80;43.00
5870;DHT22;2961;47.702;9.410;2023-07-09T14:49:17;34.90;43.40
5870;DHT22;2961;47.702;9.410;2023-07-09T14:51:44;34.90;40.60
5870;DHT22;2961;47.702;9.410;2023-07-09T14:54:18;35.00;39.10
5870;DHT22;2961;47.702;9.410;2023-07-09T14:56:45;34.80;39.80
5870;DHT22;2961;47.702;9.410;2023-07-09T14:59:12;34.90;40.60
5870;DHT22;2961;47.702;9.410;2023-07-09T15:01:39;34.80;41.90
5870;DHT22;2961;47.702;9.410;2023-07-09T15:04:25;34.80;37.90
5870;DHT22;2961;47.702;9.410;2023-07-09T15:06:54;34.70;38.30
5870;DHT22;2961;47.702;9.410;2023-07-09T15:09:23;34.80;38.30
5870;DHT22;2961;47.702;9.410;2023-07-09T15:11:51;34.70;41.80
5870;DHT22;2961;47.702;9.410;2023-07-09T15:14:19;34.70;38.60
5870;DHT22;2961;47.702;9.410;2023-07-09T15:16:46;34.70;39.00
5870;DHT22;2961;47.702;9.410;2023-07-09T15:19:15;34.80;39.60
5870;DHT22;2961;47.702;9.410;2023-07-09T15:21:43;34.60;34.70
5870;DHT22;2961;47.702;9.410;2023-07-09T15:24:11;34.60;37.10
5870;DHT22;2961;47.702;9.410;2023-07-09T15:26:40;34.50;35.40
5870;DHT22;2961;47.702;9.410;2023-07-09T15:29:13;34.40;34.50
5870;DHT22;2961;47.702;9.410;2023-07-09T15:31:40;34.30;41.40
5870;DHT22;2961;47.702;9.410;2023-07-09T15:34:07;34.20;41.00
5870;DHT22;2961;47.702;9.410;2023-07-09T15:36:34;34.30;38.70
5870;DHT22;2961;47.702;9.410;2023-07-09T15:39:02;34.30;40.40
5870;DHT22;2961;47.702;9.410;2023-07-09T15:41:29;34.40;38.70
5870;DHT22;2961;47.702;9.410;2023-07-09T15:43:56;34.40;38.50
5870;DHT22;2961;47.702;9.410;2023-07-09T15:46:23;34.40;37.30
5870;DHT22;2961;47.702;9.410;2023-07-09T15:48:50;34.40;35.60
5870;DHT22;2961;47.702;9.410;2023-07-09T15:51:17;34.30;35.50
5870;DHT22;2961;47.702;9.410;2023-07-09T15:53:44;34.30;38.80
5870;DHT22;2961;47.702;9.410;2023-07-09T15:56:20;34.20;37.60
5870;DHT22;2961;47.702;9.410;2023-07-09T15:58:49;34.20;40.10
5870;DHT22;2961;47.702;9.410;2023-07-09T16:01:17;34.10;39.30
5870;DHT22;2961;47.702;9.410;2023-07-09T16:03:46;34.00;35.40
5870;DHT22;2961;47.702;9.410;2023-07-09T16:06:14;34.10;35.50
5870;DHT22;2961;47.702;9.410;2023-07-09T16:08:41;34.00;35.00
5870;DHT22;2961;47.702;9.410;2023-07-09T16:11:15;33.90;36.40
5870;DHT22;2961;47.702;9.410;2023-07-09T16:13:42;33.90;33.80